createdAt,value
2018-09-02T00:01:18.279Z,95.30
2018-09-02T00:03:45.984Z,95.70
2018-09-02T00:06:13.652Z,95.60
2018-09-02T00:08:41.361Z,95.60
2018-09-02T00:11:09.069Z,95.90
2018-09-02T00:13:36.807Z,97.40
2018-09-02T00:16:04.924Z,96.00
2018-09-02T00:18:32.600Z,96.10
2018-09-02T00:21:04.057Z,95.70
2018-09-02T00:23:31.707Z,96.20
2018-09-02T00:26:00.471Z,96.00
2018-09-02T00:28:28.164Z,96.10
2018-09-02T00:30:55.946Z,96.20
2018-09-02T00:33:23.654Z,96.40
2018-09-02T00:35:51.216Z,96.60
2018-09-02T00:38:18.992Z,96.90
2018-09-02T00:40:46.694Z,96.20
2018-09-02T00:43:14.435Z,97.50
2018-09-02T00:45:42.251Z,96.80
2018-09-02T00:48:10.001Z,97.40
2018-09-02T00:50:37.724Z,97.30
2018-09-02T00:53:05.446Z,97.00
2018-09-02T00:55:33.259Z,96.50
2018-09-02T00:58:01.019Z,97.00
2018-09-02T01:00:28.701Z,97.90
2018-09-02T01:02:56.425Z,97.40
2018-09-02T01:05:24.131Z,96.90
2018-09-02T01:07:51.887Z,97.40
2018-09-02T01:10:19.615Z,97.00
2018-09-02T01:12:47.319Z,97.70
2018-09-02T01:15:14.992Z,98.10
2018-09-02T01:17:42.807Z,97.70
2018-09-02T01:20:10.516Z,98.40
2018-09-02T01:22:38.193Z,97.60
2018-09-02T01:25:05.968Z,98.00
2018-09-02T01:27:33.660Z,98.60
2018-09-02T01:30:03.471Z,99.20
2018-09-02T01:32:31.191Z,98.90
2018-09-02T01:34:58.933Z,98.60
2018-09-02T01:37:26.671Z,99.00
2018-09-02T01:39:54.396Z,98.90
2018-09-02T01:42:22.137Z,99.10
2018-09-02T01:44:49.899Z,99.20
2018-09-02T01:47:17.591Z,99.90
2018-09-02T01:49:45.268Z,99.90
2018-09-02T01:52:12.991Z,99.90
2018-09-02T01:54:40.676Z,99.90
2018-09-02T01:57:08.419Z,99.90
2018-09-02T01:59:36.217Z,99.90
2018-09-02T02:02:04.167Z,99.90
2018-09-02T02:04:37.468Z,99.90
2018-09-02T02:07:05.244Z,99.90
2018-09-02T02:09:32.977Z,99.90
2018-09-02T02:12:00.700Z,99.90
2018-09-02T02:14:28.439Z,99.90
2018-09-02T02:16:56.183Z,99.90
2018-09-02T02:19:23.822Z,99.90
2018-09-02T02:21:51.635Z,99.90
2018-09-02T02:24:19.288Z,99.90
2018-09-02T02:26:46.931Z,99.90
2018-09-02T02:29:14.695Z,99.90
2018-09-02T02:31:42.293Z,99.90
2018-09-02T02:34:09.963Z,99.90
2018-09-02T02:36:37.723Z,99.90
2018-09-02T02:39:07.971Z,99.90
2018-09-02T02:41:35.660Z,99.90
2018-09-02T02:44:03.416Z,99.90
2018-09-02T02:46:31.165Z,99.90
2018-09-02T02:48:58.839Z,99.90
2018-09-02T02:51:26.575Z,99.90
2018-09-02T02:53:54.352Z,99.90
2018-09-02T02:56:22.091Z,99.90
2018-09-02T02:58:49.796Z,99.90
2018-09-02T03:01:17.555Z,99.90
2018-09-02T03:03:45.291Z,99.90
2018-09-02T03:06:12.968Z,99.90
2018-09-02T03:08:40.740Z,99.90
2018-09-02T03:11:08.482Z,99.90
2018-09-02T03:13:36.176Z,99.90
2018-09-02T03:16:04.215Z,99.90
2018-09-02T03:18:31.939Z,99.90
2018-09-02T03:20:59.630Z,99.90
2018-09-02T03:23:27.271Z,99.90
2018-09-02T03:25:54.979Z,99.90
2018-09-02T03:28:22.739Z,99.90
2018-09-02T03:30:50.493Z,99.90
2018-09-02T03:33:18.167Z,99.90
2018-09-02T03:35:45.871Z,99.90
2018-09-02T03:38:13.565Z,99.90
2018-09-02T03:40:41.307Z,99.90
2018-09-02T03:43:12.193Z,99.90
2018-09-02T03:45:39.908Z,99.90
2018-09-02T03:48:07.607Z,99.90
2018-09-02T03:50:35.340Z,99.90
2018-09-02T03:53:03.064Z,99.90
2018-09-02T03:55:30.847Z,99.90
2018-09-02T03:57:58.539Z,99.90
2018-09-02T04:00:26.220Z,99.90
2018-09-02T04:02:53.944Z,99.90
2018-09-02T04:05:21.704Z,99.90
2018-09-02T04:07:49.389Z,99.90
2018-09-02T04:10:17.428Z,99.90
2018-09-02T04:12:45.095Z,99.90
2018-09-02T04:15:12.772Z,99.90
2018-09-02T04:17:40.523Z,99.90
2018-09-02T04:20:08.367Z,99.90
2018-09-02T04:22:36.055Z,99.90
2018-09-02T04:25:03.836Z,99.90
2018-09-02T04:27:31.625Z,99.90
2018-09-02T04:29:59.368Z,99.90
2018-09-02T04:32:27.088Z,99.90
2018-09-02T04:34:54.824Z,99.90
2018-09-02T04:37:22.459Z,99.90
2018-09-02T04:39:50.217Z,99.90
2018-09-02T04:42:17.919Z,99.90
2018-09-02T04:44:45.695Z,99.90
2018-09-02T04:47:13.451Z,99.90
2018-09-02T04:49:41.144Z,99.90
2018-09-02T04:52:08.804Z,99.90
2018-09-02T04:54:36.519Z,99.90
2018-09-02T04:57:04.228Z,99.90
2018-09-02T04:59:31.944Z,99.90
2018-09-02T05:01:59.679Z,99.90
2018-09-02T05:04:27.438Z,99.90
2018-09-02T05:06:55.182Z,99.90
2018-09-02T05:09:22.860Z,99.90
2018-09-02T05:11:50.569Z,99.90
2018-09-02T05:14:18.324Z,99.90
2018-09-02T05:16:45.982Z,99.90
2018-09-02T05:19:13.657Z,99.90
2018-09-02T05:21:41.409Z,99.90
2018-09-02T05:24:09.083Z,99.90
2018-09-02T05:26:36.820Z,99.90
2018-09-02T05:29:04.500Z,99.90
2018-09-02T05:31:32.219Z,99.90
2018-09-02T05:33:59.939Z,99.90
2018-09-02T05:36:27.632Z,99.90
2018-09-02T05:38:55.344Z,99.90
2018-09-02T05:41:26.395Z,99.90
2018-09-02T05:43:54.075Z,99.90
2018-09-02T05:46:21.812Z,99.90
2018-09-02T05:48:49.514Z,99.90
2018-09-02T05:51:17.211Z,99.90
2018-09-02T05:53:44.920Z,99.90
2018-09-02T05:56:12.649Z,99.90
2018-09-02T05:58:40.373Z,99.90
2018-09-02T06:01:08.091Z,99.90
2018-09-02T06:03:35.847Z,99.90
2018-09-02T06:06:03.857Z,99.90
2018-09-02T06:08:31.628Z,99.90
2018-09-02T06:10:59.315Z,99.90
2018-09-02T06:13:26.983Z,99.90
2018-09-02T06:15:54.631Z,99.90
2018-09-02T06:18:22.299Z,99.90
2018-09-02T06:20:53.756Z,99.90
2018-09-02T06:23:21.496Z,99.90
2018-09-02T06:25:49.288Z,99.90
2018-09-02T06:28:16.922Z,99.90
2018-09-02T06:30:45.680Z,99.90
2018-09-02T06:33:13.355Z,99.90
2018-09-02T06:35:41.074Z,99.90
2018-09-02T06:38:08.837Z,99.90
2018-09-02T06:40:36.503Z,99.90
2018-09-02T06:43:04.344Z,99.90
2018-09-02T06:45:32.194Z,99.90
2018-09-02T06:47:59.881Z,99.90
2018-09-02T06:50:27.717Z,99.90
2018-09-02T06:52:55.440Z,99.90
2018-09-02T06:55:23.156Z,99.90
2018-09-02T06:57:50.951Z,99.90
2018-09-02T07:00:19.116Z,99.90
2018-09-02T07:02:47.035Z,99.90
2018-09-02T07:05:15.775Z,99.90
2018-09-02T07:07:43.520Z,99.90
2018-09-02T07:10:11.249Z,99.90
2018-09-02T07:12:39.040Z,99.90
2018-09-02T07:15:06.781Z,99.90
2018-09-02T07:17:34.595Z,99.90
2018-09-02T07:20:02.335Z,99.90
2018-09-02T07:22:30.060Z,99.90
2018-09-02T07:24:57.992Z,99.90
2018-09-02T07:27:25.808Z,99.90
2018-09-02T07:29:53.671Z,99.90
2018-09-02T07:32:21.324Z,99.90
2018-09-02T07:34:49.045Z,99.90
2018-09-02T07:37:17.637Z,99.90
2018-09-02T07:39:45.315Z,99.90
2018-09-02T07:42:12.992Z,99.90
2018-09-02T07:44:40.736Z,99.90
2018-09-02T07:47:08.574Z,99.90
2018-09-02T07:49:36.222Z,99.90
2018-09-02T07:52:04.324Z,99.90
2018-09-02T07:54:32.095Z,99.90
2018-09-02T07:56:59.733Z,99.90
2018-09-02T07:59:27.417Z,99.90
2018-09-02T08:01:55.138Z,99.90
2018-09-02T08:04:22.908Z,99.90
2018-09-02T08:06:50.576Z,99.90
2018-09-02T08:09:18.414Z,99.90
2018-09-02T08:11:46.134Z,99.90
2018-09-02T08:14:13.803Z,99.90
2018-09-02T08:16:41.551Z,99.90
2018-09-02T08:19:09.463Z,99.90
2018-09-02T08:21:37.457Z,99.90
2018-09-02T08:24:05.392Z,99.90
2018-09-02T08:26:33.164Z,99.90
2018-09-02T08:29:04.016Z,99.90
2018-09-02T08:31:31.821Z,99.90
2018-09-02T08:33:59.540Z,99.90
2018-09-02T08:36:27.265Z,99.90
2018-09-02T08:38:55.043Z,99.90
2018-09-02T08:41:22.836Z,99.90
2018-09-02T08:43:50.563Z,99.90
2018-09-02T08:46:18.227Z,99.90
2018-09-02T08:48:45.916Z,99.90
2018-09-02T08:51:17.274Z,99.90
2018-09-02T08:53:44.977Z,99.90
2018-09-02T08:56:12.880Z,99.90
2018-09-02T08:58:40.604Z,99.90
2018-09-02T09:01:08.375Z,99.90
2018-09-02T09:03:36.144Z,99.90
2018-09-02T09:06:03.943Z,99.90
2018-09-02T09:08:31.915Z,99.90
2018-09-02T09:11:00.046Z,99.90
2018-09-02T09:13:31.069Z,99.90
2018-09-02T09:15:58.787Z,99.90
2018-09-02T09:18:26.575Z,99.90
2018-09-02T09:20:54.360Z,99.90
2018-09-02T09:23:22.080Z,99.90
2018-09-02T09:25:49.823Z,99.90
2018-09-02T09:28:21.160Z,99.90
2018-09-02T09:30:48.896Z,99.90
2018-09-02T09:33:16.592Z,99.90
2018-09-02T09:35:44.328Z,99.90
2018-09-02T09:38:12.119Z,99.90
2018-09-02T09:40:39.860Z,99.90
2018-09-02T09:43:07.555Z,99.90
2018-09-02T09:45:35.288Z,99.90
2018-09-02T09:48:02.939Z,99.90
2018-09-02T09:50:30.714Z,99.90
2018-09-02T09:52:58.384Z,99.90
2018-09-02T09:55:26.201Z,99.90
2018-09-02T09:57:53.860Z,99.90
2018-09-02T10:00:27.155Z,99.90
2018-09-02T10:02:54.816Z,99.90
2018-09-02T10:05:26.043Z,99.90
2018-09-02T10:07:53.707Z,99.90
2018-09-02T10:10:21.459Z,99.90
2018-09-02T10:12:49.116Z,99.90
2018-09-02T10:15:16.839Z,99.90
2018-09-02T10:17:44.575Z,99.90
2018-09-02T10:20:12.322Z,99.90
2018-09-02T10:22:40.020Z,99.90
2018-09-02T10:25:07.768Z,99.90
2018-09-02T10:27:35.493Z,99.90
2018-09-02T10:30:04.145Z,99.90
2018-09-02T10:32:31.928Z,99.90
2018-09-02T10:34:59.668Z,99.90
2018-09-02T10:37:27.355Z,99.90
2018-09-02T10:39:55.132Z,99.90
2018-09-02T10:42:22.823Z,99.90
2018-09-02T10:44:50.551Z,99.90
2018-09-02T10:47:18.174Z,99.90
2018-09-02T10:49:46.020Z,99.90
2018-09-02T10:52:13.619Z,99.90
2018-09-02T10:54:41.331Z,99.90
2018-09-02T10:57:09.003Z,99.90
2018-09-02T10:59:36.773Z,99.90
2018-09-02T11:02:04.548Z,99.90
2018-09-02T11:04:32.220Z,99.90
2018-09-02T11:06:59.906Z,99.90
2018-09-02T11:09:27.609Z,99.90
2018-09-02T11:11:55.292Z,99.90
2018-09-02T11:14:22.983Z,99.90
2018-09-02T11:16:50.784Z,99.90
2018-09-02T11:19:18.489Z,99.90
2018-09-02T11:21:46.301Z,99.90
2018-09-02T11:24:14.052Z,99.90
2018-09-02T11:26:41.739Z,99.90
2018-09-02T11:29:09.555Z,99.90
2018-09-02T11:31:37.304Z,99.90
2018-09-02T11:34:05.276Z,99.90
2018-09-02T11:36:33.047Z,99.90
2018-09-02T11:39:00.716Z,99.90
2018-09-02T11:41:28.439Z,99.90
2018-09-02T11:43:56.164Z,99.90
2018-09-02T11:46:23.835Z,99.90
2018-09-02T11:48:54.540Z,99.90
2018-09-02T11:51:22.325Z,99.90
2018-09-02T11:53:50.068Z,99.90
2018-09-02T11:56:17.847Z,99.90
2018-09-02T11:58:45.584Z,99.90
2018-09-02T12:01:13.280Z,99.90
2018-09-02T12:03:40.948Z,99.90
2018-09-02T12:06:08.707Z,99.90
2018-09-02T12:08:36.359Z,99.90
2018-09-02T12:11:04.070Z,99.90
2018-09-02T12:13:31.768Z,99.90
2018-09-02T12:15:59.447Z,99.90
2018-09-02T12:18:27.172Z,99.90
2018-09-02T12:20:54.853Z,99.90
2018-09-02T12:23:22.608Z,99.90
2018-09-02T12:25:50.314Z,99.90
2018-09-02T12:28:17.992Z,99.90
2018-09-02T12:30:45.647Z,99.90
2018-09-02T12:33:13.304Z,99.90
2018-09-02T12:35:40.975Z,99.90
2018-09-02T12:38:08.675Z,99.90
2018-09-02T12:40:36.420Z,99.90
2018-09-02T12:43:04.189Z,99.90
2018-09-02T12:45:31.907Z,99.90
2018-09-02T12:47:59.707Z,99.90
2018-09-02T12:50:27.289Z,99.90
2018-09-02T12:52:54.989Z,99.90
2018-09-02T12:55:22.836Z,99.90
2018-09-02T12:57:50.439Z,99.90
2018-09-02T13:00:18.068Z,99.90
2018-09-02T13:02:45.968Z,99.90
2018-09-02T13:05:13.467Z,99.90
2018-09-02T13:07:41.239Z,99.90
2018-09-02T13:10:12.636Z,99.90
2018-09-02T13:12:40.681Z,99.90
2018-09-02T13:15:08.424Z,99.90
2018-09-02T13:17:36.128Z,99.90
2018-09-02T13:20:04.037Z,99.90
2018-09-02T13:22:31.839Z,99.90
2018-09-02T13:25:00.515Z,99.90
2018-09-02T13:27:28.251Z,99.90
2018-09-02T13:29:56.015Z,99.90
2018-09-02T13:32:23.639Z,99.90
2018-09-02T13:34:51.348Z,99.90
2018-09-02T13:37:22.184Z,99.90
2018-09-02T13:39:50.236Z,99.90
2018-09-02T13:42:17.964Z,99.90
2018-09-02T13:44:45.695Z,99.90
2018-09-02T13:47:13.436Z,99.90
2018-09-02T13:49:41.173Z,99.90
2018-09-02T13:52:09.136Z,99.90
2018-09-02T13:54:37.167Z,99.90
2018-09-02T13:57:04.872Z,99.90
2018-09-02T13:59:32.592Z,99.90
2018-09-02T14:02:00.292Z,99.90
2018-09-02T14:04:28.051Z,99.90
2018-09-02T14:06:55.772Z,99.90
2018-09-02T14:09:23.440Z,99.90
2018-09-02T14:11:51.128Z,99.90
2018-09-02T14:14:18.788Z,99.90
2018-09-02T14:16:46.552Z,99.90
2018-09-02T14:19:14.275Z,99.90
2018-09-02T14:21:41.992Z,99.90
2018-09-02T14:24:09.689Z,99.90
2018-09-02T14:26:37.464Z,99.90
2018-09-02T14:29:05.208Z,99.90
2018-09-02T14:31:33.019Z,99.90
2018-09-02T14:34:00.756Z,99.90
2018-09-02T14:36:28.418Z,99.90
2018-09-02T14:38:56.068Z,99.90
2018-09-02T14:41:27.219Z,99.90
2018-09-02T14:43:55.088Z,99.90
2018-09-02T14:46:22.727Z,99.90
2018-09-02T14:48:50.499Z,99.90
2018-09-02T14:51:18.212Z,99.90
2018-09-02T14:53:45.875Z,99.90
2018-09-02T14:56:13.593Z,99.90
2018-09-02T14:58:41.342Z,99.90
2018-09-02T15:01:09.068Z,99.90
2018-09-02T15:03:36.750Z,99.90
2018-09-02T15:06:04.527Z,99.90
2018-09-02T15:08:35.824Z,99.90
2018-09-02T15:11:03.627Z,99.90
2018-09-02T15:13:31.820Z,99.90
2018-09-02T15:15:59.556Z,99.90
2018-09-02T15:18:27.311Z,99.90
2018-09-02T15:20:55.000Z,99.90
2018-09-02T15:23:22.756Z,99.90
2018-09-02T15:25:50.574Z,99.90
2018-09-02T15:28:18.324Z,99.90
2018-09-02T15:30:46.006Z,99.90
2018-09-02T15:33:14.186Z,99.90
2018-09-02T15:35:45.695Z,99.90
2018-09-02T15:38:13.424Z,99.90
2018-09-02T15:40:41.136Z,99.90
2018-09-02T15:43:08.904Z,99.90
2018-09-02T15:45:36.600Z,99.90
2018-09-02T15:48:04.476Z,99.90
2018-09-02T15:50:32.260Z,99.90
2018-09-02T15:53:00.000Z,99.90
2018-09-02T15:55:31.222Z,99.90
2018-09-02T15:57:59.056Z,99.90
2018-09-02T16:00:27.742Z,99.90
2018-09-02T16:02:55.424Z,99.90
2018-09-02T16:05:23.164Z,99.90
2018-09-02T16:07:50.923Z,99.90
2018-09-02T16:10:18.608Z,99.90
2018-09-02T16:12:46.268Z,99.90
2018-09-02T16:15:13.955Z,99.90
2018-09-02T16:17:41.655Z,99.90
2018-09-02T16:20:09.382Z,99.90
2018-09-02T16:22:37.028Z,99.90
2018-09-02T16:25:04.952Z,99.90
2018-09-02T16:27:32.723Z,99.90
2018-09-02T16:30:00.463Z,99.90
2018-09-02T16:32:30.265Z,99.90
2018-09-02T16:34:58.015Z,99.90
2018-09-02T16:37:25.700Z,99.90
2018-09-02T16:39:53.427Z,99.90
2018-09-02T16:42:21.153Z,99.90
2018-09-02T16:44:48.944Z,99.90
2018-09-02T16:47:16.672Z,99.90
2018-09-02T16:49:44.351Z,99.90
2018-09-02T16:52:12.088Z,99.90
2018-09-02T16:54:39.749Z,99.90
2018-09-02T16:57:07.452Z,99.90
2018-09-02T16:59:35.193Z,99.90
2018-09-02T17:02:03.036Z,99.90
2018-09-02T17:04:32.736Z,99.90
2018-09-02T17:07:00.428Z,99.90
2018-09-02T17:09:28.278Z,99.90
2018-09-02T17:11:56.150Z,99.90
2018-09-02T17:14:23.760Z,99.90
2018-09-02T17:16:51.464Z,99.90
2018-09-02T17:19:23.195Z,99.90
2018-09-02T17:21:51.036Z,99.90
2018-09-02T17:24:18.724Z,99.90
2018-09-02T17:26:46.412Z,99.90
2018-09-02T17:29:14.234Z,99.90
2018-09-02T17:31:42.051Z,99.90
2018-09-02T17:34:09.707Z,99.90
2018-09-02T17:36:38.008Z,99.90
2018-09-02T17:39:11.056Z,99.90
2018-09-02T17:41:38.852Z,99.90
2018-09-02T17:44:06.580Z,99.90
2018-09-02T17:46:34.383Z,99.90
2018-09-02T17:49:02.114Z,99.90
2018-09-02T17:51:29.852Z,99.90
2018-09-02T17:53:57.632Z,99.90
2018-09-02T17:56:25.673Z,99.90
2018-09-02T17:58:53.454Z,99.90
2018-09-02T18:01:21.364Z,99.90
2018-09-02T18:03:49.171Z,99.90
2018-09-02T18:06:17.008Z,99.90
2018-09-02T18:08:44.823Z,99.90
2018-09-02T18:11:12.649Z,99.90
2018-09-02T18:13:40.513Z,99.90
2018-09-02T18:16:09.131Z,99.90
2018-09-02T18:18:37.779Z,99.90
2018-09-02T18:21:05.922Z,99.90
2018-09-02T18:23:34.417Z,99.90
2018-09-02T18:26:03.287Z,99.90
2018-09-02T18:28:40.562Z,99.90
2018-09-02T18:31:08.468Z,99.90
2018-09-02T18:33:36.675Z,99.90
2018-09-02T18:36:05.147Z,99.90
2018-09-02T18:38:34.085Z,99.90
2018-09-02T18:41:02.906Z,99.90
2018-09-02T18:44:35.807Z,99.90
2018-09-02T18:47:05.869Z,99.90
2018-09-02T18:49:36.043Z,99.90
2018-09-02T18:52:05.813Z,99.90
2018-09-02T18:54:35.609Z,99.90
2018-09-02T18:57:05.855Z,99.90
2018-09-02T18:59:36.039Z,99.90
2018-09-02T19:02:05.880Z,99.90
2018-09-02T19:04:35.968Z,99.90
2018-09-02T19:07:06.452Z,99.90
2018-09-02T19:09:36.843Z,99.90
2018-09-02T19:12:07.886Z,99.90
2018-09-02T19:14:38.004Z,99.90
2018-09-02T19:17:08.324Z,99.90
2018-09-02T19:19:38.545Z,99.90
2018-09-02T19:22:08.756Z,99.90
2018-09-02T19:24:39.159Z,99.90
2018-09-02T19:27:09.287Z,99.90
2018-09-02T19:29:39.707Z,99.90
2018-09-02T19:32:09.701Z,99.90
2018-09-02T19:34:39.383Z,99.90
2018-09-02T19:37:09.296Z,99.90
2018-09-02T19:39:39.207Z,99.90
2018-09-02T19:42:08.421Z,99.90
2018-09-02T19:44:37.998Z,99.90
2018-09-02T19:47:07.079Z,99.90
2018-09-02T19:49:35.932Z,99.90
2018-09-02T19:52:04.470Z,99.90
2018-09-02T19:54:33.171Z,99.90
2018-09-02T19:57:01.518Z,99.90
2018-09-02T19:59:29.923Z,99.90
2018-09-02T20:01:58.353Z,99.90
2018-09-02T20:04:26.200Z,99.90
2018-09-02T20:06:55.168Z,99.90
2018-09-02T20:09:23.231Z,99.90
2018-09-02T20:11:51.071Z,99.90
2018-09-02T20:14:18.851Z,99.90
2018-09-02T20:16:46.575Z,99.90
2018-09-02T20:19:14.405Z,99.90
2018-09-02T20:21:42.093Z,99.90
2018-09-02T20:24:09.847Z,99.90
2018-09-02T20:26:37.608Z,99.90
2018-09-02T20:29:05.440Z,99.90
2018-09-02T20:31:33.656Z,99.90
2018-09-02T20:34:02.314Z,99.90
2018-09-02T20:36:30.131Z,99.90
2018-09-02T20:38:57.809Z,99.90
2018-09-02T20:41:25.700Z,99.90
2018-09-02T20:43:53.375Z,99.90
2018-09-02T20:46:21.162Z,99.90
2018-09-02T20:48:48.868Z,99.90
2018-09-02T20:51:16.588Z,99.90
2018-09-02T20:53:44.295Z,99.90
2018-09-02T20:56:12.063Z,99.90
2018-09-02T20:58:39.857Z,99.90
2018-09-02T21:01:07.727Z,99.90
2018-09-02T21:03:35.453Z,99.90
2018-09-02T21:06:03.239Z,99.90
2018-09-02T21:08:30.986Z,99.90
2018-09-02T21:10:58.703Z,99.90
2018-09-02T21:13:26.303Z,99.90
2018-09-02T21:15:53.927Z,99.90
2018-09-02T21:18:21.971Z,99.90
2018-09-02T21:20:49.930Z,99.90
2018-09-02T21:23:17.678Z,99.90
2018-09-02T21:25:45.435Z,99.90
2018-09-02T21:28:13.223Z,99.90
2018-09-02T21:30:40.999Z,99.90
2018-09-02T21:33:08.791Z,99.90
2018-09-02T21:35:36.416Z,99.90
2018-09-02T21:38:04.186Z,99.90
2018-09-02T21:40:31.959Z,99.90
2018-09-02T21:42:59.691Z,99.90
2018-09-02T21:45:27.472Z,99.90
2018-09-02T21:47:55.271Z,99.90
2018-09-02T21:50:23.041Z,99.90
2018-09-02T21:52:50.815Z,99.90
2018-09-02T21:55:18.503Z,99.90
2018-09-02T21:57:46.252Z,99.90
2018-09-02T22:00:15.419Z,99.90
2018-09-02T22:02:43.224Z,99.90
2018-09-02T22:05:12.528Z,99.90
2018-09-02T22:07:40.975Z,99.90
2018-09-02T22:10:08.651Z,99.90
2018-09-02T22:12:39.733Z,99.90
2018-09-02T22:15:08.431Z,99.90
2018-09-02T22:17:36.139Z,99.90
2018-09-02T22:20:04.145Z,99.90
2018-09-02T22:22:31.921Z,99.90
2018-09-02T22:24:59.701Z,99.90
2018-09-02T22:27:28.921Z,99.90
2018-09-02T22:29:56.591Z,99.90
2018-09-02T22:32:24.333Z,99.90
2018-09-02T22:34:52.132Z,99.90
2018-09-02T22:37:19.864Z,99.90
2018-09-02T22:39:47.656Z,99.90
2018-09-02T22:42:15.400Z,99.90
2018-09-02T22:44:43.157Z,99.90
2018-09-02T22:47:10.763Z,99.90
2018-09-02T22:49:38.415Z,99.90
2018-09-02T22:52:06.178Z,99.90
2018-09-02T22:54:33.872Z,99.90
2018-09-02T22:57:01.547Z,99.90
2018-09-02T22:59:29.276Z,99.90
2018-09-02T23:01:56.972Z,99.90
2018-09-02T23:04:24.680Z,99.90
2018-09-02T23:06:52.394Z,99.90
2018-09-02T23:09:20.126Z,99.90
2018-09-02T23:11:47.791Z,99.90
2018-09-02T23:14:15.512Z,99.90
2018-09-02T23:16:43.223Z,99.90
2018-09-02T23:19:10.891Z,99.90
2018-09-02T23:21:38.547Z,99.90
2018-09-02T23:24:06.396Z,99.90
2018-09-02T23:26:34.124Z,99.90
2018-09-02T23:29:01.844Z,99.90
2018-09-02T23:31:29.540Z,99.90
2018-09-02T23:33:57.244Z,99.90
2018-09-02T23:36:24.936Z,99.90
2018-09-02T23:38:52.608Z,99.90
2018-09-02T23:41:20.316Z,99.90
2018-09-02T23:43:48.023Z,99.90
2018-09-02T23:46:15.688Z,99.90
2018-09-02T23:48:43.424Z,99.90
2018-09-02T23:51:11.219Z,99.90
2018-09-02T23:53:38.910Z,99.90
2018-09-02T23:56:07.049Z,99.90
2018-09-02T23:58:34.643Z,99.90
